sensor_id;sensor_type;location;lat;lon;timestamp;pressure;altitude;pressure_sealevel;temperature;humidity
42411;BME280;28056;51.112;0.984;2023-02-21T00:02:09;101264.86;;;10.69;59.43
42411;BME280;28056;51.112;0.984;2023-02-21T00:04:37;101266.72;;;10.81;60.52
42411;BME280;28056;51.112;0.984;2023-02-21T00:07:04;101265.54;;;10.93;60.51
42411;BME280;28056;51.112;0.984;2023-02-21T00:09:31;101265.88;;;10.82;57.42
42411;BME280;28056;51.112;0.984;2023-02-21T00:11:58;101271.49;;;10.35;59.79
42411;BME280;28056;51.112;0.984;2023-02-21T00:14:25;101273.63;;;10.81;60.76
42411;BME280;28056;51.112;0.984;2023-02-21T00:16:52;101279.38;;;10.06;61.33
42411;BME280;28056;51.112;0.984;2023-02-21T00:19:21;101273.73;;;9.95;62.14
42411;BME280;28056;51.112;0.984;2023-02-21T00:21:48;101273.51;;;9.43;63.28
42411;BME280;28056;51.112;0.984;2023-02-21T00:24:17;101274.00;;;10.10;61.01
42411;BME280;28056;51.112;0.984;2023-02-21T00:26:45;101271.02;;;9.80;62.59
42411;BME280;28056;51.112;0.984;2023-02-21T00:29:12;101272.25;;;9.93;63.10
42411;BME280;28056;51.112;0.984;2023-02-21T00:31:40;101274.08;;;10.01;62.45
42411;BME280;28056;51.112;0.984;2023-02-21T00:34:07;101269.15;;;9.75;62.45
42411;BME280;28056;51.112;0.984;2023-02-21T00:36:34;101263.96;;;9.86;63.23
42411;BME280;28056;51.112;0.984;2023-02-21T00:39:02;101260.99;;;9.15;64.67
42411;BME280;28056;51.112;0.984;2023-02-21T00:41:30;101260.46;;;8.94;66.24
42411;BME280;28056;51.112;0.984;2023-02-21T00:43:57;101261.85;;;9.22;66.05
42411;BME280;28056;51.112;0.984;2023-02-21T00:46:24;101264.08;;;9.62;64.68
42411;BME280;28056;51.112;0.984;2023-02-21T00:48:52;101256.24;;;9.70;65.76
42411;BME280;28056;51.112;0.984;2023-02-21T00:51:19;101252.90;;;9.27;65.84
42411;BME280;28056;51.112;0.984;2023-02-21T00:53:47;101251.23;;;7.94;69.36
42411;BME280;28056;51.112;0.984;2023-02-21T00:56:14;101252.12;;;7.79;70.83
42411;BME280;28056;51.112;0.984;2023-02-21T00:58:41;101249.03;;;7.88;71.80
42411;BME280;28056;51.112;0.984;2023-02-21T01:04:54;101241.15;;;5.51;80.21
42411;BME280;28056;51.112;0.984;2023-02-21T01:07:22;101237.60;;;5.19;82.12
42411;BME280;28056;51.112;0.984;2023-02-21T01:09:49;101231.74;;;6.23;79.16
42411;BME280;28056;51.112;0.984;2023-02-21T01:12:17;101232.33;;;5.92;79.34
42411;BME280;28056;51.112;0.984;2023-02-21T01:14:44;101227.59;;;5.00;83.08
42411;BME280;28056;51.112;0.984;2023-02-21T01:17:11;101233.33;;;4.86;85.96
42411;BME280;28056;51.112;0.984;2023-02-21T01:19:39;101223.54;;;5.53;84.81
42411;BME280;28056;51.112;0.984;2023-02-21T01:22:06;101219.96;;;4.65;86.08
42411;BME280;28056;51.112;0.984;2023-02-21T01:24:34;101218.68;;;4.97;87.39
42411;BME280;28056;51.112;0.984;2023-02-21T01:27:02;101216.31;;;4.77;88.43
42411;BME280;28056;51.112;0.984;2023-02-21T01:29:29;101222.32;;;5.10;88.54
42411;BME280;28056;51.112;0.984;2023-02-21T01:31:57;101223.63;;;4.95;87.14
42411;BME280;28056;51.112;0.984;2023-02-21T01:34:24;101217.89;;;4.44;89.67
42411;BME280;28056;51.112;0.984;2023-02-21T01:36:52;101218.61;;;5.03;88.98
42411;BME280;28056;51.112;0.984;2023-02-21T01:39:20;101212.87;;;3.94;91.47
42411;BME280;28056;51.112;0.984;2023-02-21T01:41:47;101210.82;;;3.58;94.47
42411;BME280;28056;51.112;0.984;2023-02-21T01:44:48;101208.94;;;3.80;94.80
42411;BME280;28056;51.112;0.984;2023-02-21T01:47:15;101207.20;;;3.99;94.98
42411;BME280;28056;51.112;0.984;2023-02-21T01:49:43;101212.38;;;4.81;92.96
42411;BME280;28056;51.112;0.984;2023-02-21T01:52:10;101206.77;;;5.01;89.87
42411;BME280;28056;51.112;0.984;2023-02-21T01:54:42;101202.75;;;5.30;88.30
42411;BME280;28056;51.112;0.984;2023-02-21T01:57:12;101203.37;;;5.44;88.77
42411;BME280;28056;51.112;0.984;2023-02-21T01:59:40;101201.60;;;4.57;91.21
42411;BME280;28056;51.112;0.984;2023-02-21T02:02:12;101203.66;;;4.69;89.95
42411;BME280;28056;51.112;0.984;2023-02-21T02:04:43;101196.93;;;6.17;85.87
42411;BME280;28056;51.112;0.984;2023-02-21T02:07:11;101192.58;;;6.49;82.19
42411;BME280;28056;51.112;0.984;2023-02-21T02:09:38;101188.70;;;7.49;78.86
42411;BME280;28056;51.112;0.984;2023-02-21T02:12:22;101189.55;;;7.14;79.03
42411;BME280;28056;51.112;0.984;2023-02-21T02:16:03;101185.97;;;4.78;87.27
42411;BME280;28056;51.112;0.984;2023-02-21T02:18:45;101177.07;;;5.64;87.70
42411;BME280;28056;51.112;0.984;2023-02-21T02:24:57;101170.68;;;6.24;86.17
42411;BME280;28056;51.112;0.984;2023-02-21T02:27:48;101166.38;;;6.01;82.45
42411;BME280;28056;51.112;0.984;2023-02-21T02:30:44;101166.70;;;5.99;84.81
42411;BME280;28056;51.112;0.984;2023-02-21T02:35:32;101170.66;;;4.78;87.74
42411;BME280;28056;51.112;0.984;2023-02-21T02:38:05;101165.14;;;4.88;91.23
42411;BME280;28056;51.112;0.984;2023-02-21T02:40:42;101161.01;;;4.60;90.18
42411;BME280;28056;51.112;0.984;2023-02-21T02:43:16;101159.45;;;4.88;91.40
42411;BME280;28056;51.112;0.984;2023-02-21T02:45:52;101153.72;;;5.76;87.79
42411;BME280;28056;51.112;0.984;2023-02-21T02:48:22;101154.24;;;6.36;84.35
42411;BME280;28056;51.112;0.984;2023-02-21T02:50:53;101154.46;;;5.90;85.09
42411;BME280;28056;51.112;0.984;2023-02-21T02:53:24;101153.66;;;6.26;83.68
42411;BME280;28056;51.112;0.984;2023-02-21T02:55:54;101147.01;;;5.95;83.13
42411;BME280;28056;51.112;0.984;2023-02-21T02:58:25;101146.86;;;6.02;82.57
42411;BME280;28056;51.112;0.984;2023-02-21T03:01:03;101147.20;;;6.28;81.75
42411;BME280;28056;51.112;0.984;2023-02-21T03:03:52;101141.45;;;5.08;85.69
42411;BME280;28056;51.112;0.984;2023-02-21T03:06:30;101141.55;;;5.15;87.45
42411;BME280;28056;51.112;0.984;2023-02-21T03:09:06;101139.14;;;6.12;83.59
42411;BME280;28056;51.112;0.984;2023-02-21T03:11:39;101139.24;;;5.16;86.32
42411;BME280;28056;51.112;0.984;2023-02-21T03:14:13;101135.80;;;5.84;85.02
42411;BME280;28056;51.112;0.984;2023-02-21T03:16:46;101137.19;;;6.87;81.42
42411;BME280;28056;51.112;0.984;2023-02-21T03:19:16;101134.64;;;8.20;76.53
42411;BME280;28056;51.112;0.984;2023-02-21T03:21:48;101134.11;;;7.58;76.63
42411;BME280;28056;51.112;0.984;2023-02-21T03:24:17;101136.97;;;7.86;75.85
42411;BME280;28056;51.112;0.984;2023-02-21T03:26:48;101136.98;;;7.71;76.36
42411;BME280;28056;51.112;0.984;2023-02-21T03:29:18;101136.60;;;7.11;77.37
42411;BME280;28056;51.112;0.984;2023-02-21T03:31:50;101135.01;;;6.46;78.24
42411;BME280;28056;51.112;0.984;2023-02-21T03:34:21;101133.51;;;5.49;83.32
42411;BME280;28056;51.112;0.984;2023-02-21T03:36:49;101138.45;;;5.57;83.62
42411;BME280;28056;51.112;0.984;2023-02-21T03:39:17;101138.84;;;5.65;82.96
42411;BME280;28056;51.112;0.984;2023-02-21T03:41:44;101137.14;;;6.51;81.19
42411;BME280;28056;51.112;0.984;2023-02-21T03:44:11;101138.59;;;7.05;78.26
42411;BME280;28056;51.112;0.984;2023-02-21T03:46:39;101138.53;;;6.97;78.67
42411;BME280;28056;51.112;0.984;2023-02-21T03:49:06;101130.52;;;7.42;77.44
42411;BME280;28056;51.112;0.984;2023-02-21T03:51:34;101132.49;;;6.75;78.40
42411;BME280;28056;51.112;0.984;2023-02-21T03:54:01;101129.15;;;6.48;78.09
42411;BME280;28056;51.112;0.984;2023-02-21T03:56:30;101125.66;;;6.54;78.97
42411;BME280;28056;51.112;0.984;2023-02-21T03:58:58;101124.45;;;6.03;79.68
42411;BME280;28056;51.112;0.984;2023-02-21T04:01:26;101121.76;;;6.15;79.10
42411;BME280;28056;51.112;0.984;2023-02-21T04:03:53;101123.36;;;6.83;79.27
42411;BME280;28056;51.112;0.984;2023-02-21T04:06:20;101123.02;;;7.00;77.52
42411;BME280;28056;51.112;0.984;2023-02-21T04:08:48;101127.14;;;7.81;74.20
42411;BME280;28056;51.112;0.984;2023-02-21T04:11:17;101125.30;;;7.39;75.68
42411;BME280;28056;51.112;0.984;2023-02-21T04:13:44;101122.22;;;8.51;72.14
42411;BME280;28056;51.112;0.984;2023-02-21T04:16:12;101119.22;;;7.13;75.14
42411;BME280;28056;51.112;0.984;2023-02-21T04:18:39;101120.26;;;6.75;75.74
42411;BME280;28056;51.112;0.984;2023-02-21T04:21:07;101116.55;;;6.89;77.05
42411;BME280;28056;51.112;0.984;2023-02-21T04:23:34;101120.15;;;6.59;77.56
42411;BME280;28056;51.112;0.984;2023-02-21T04:26:02;101118.70;;;7.45;75.60
42411;BME280;28056;51.112;0.984;2023-02-21T04:28:29;101123.20;;;8.25;72.87
42411;BME280;28056;51.112;0.984;2023-02-21T04:30:57;101122.59;;;7.87;72.94
42411;BME280;28056;51.112;0.984;2023-02-21T04:33:24;101123.27;;;8.12;72.53
42411;BME280;28056;51.112;0.984;2023-02-21T04:35:51;101122.84;;;7.87;73.31
42411;BME280;28056;51.112;0.984;2023-02-21T04:38:19;101118.37;;;7.13;73.45
42411;BME280;28056;51.112;0.984;2023-02-21T04:40:46;101120.14;;;7.49;73.43
42411;BME280;28056;51.112;0.984;2023-02-21T04:43:13;101124.81;;;7.47;73.97
42411;BME280;28056;51.112;0.984;2023-02-21T04:45:41;101126.28;;;7.97;72.94
42411;BME280;28056;51.112;0.984;2023-02-21T04:48:09;101117.93;;;7.19;73.56
42411;BME280;28056;51.112;0.984;2023-02-21T04:50:36;101119.20;;;6.48;76.24
42411;BME280;28056;51.112;0.984;2023-02-21T04:53:03;101117.07;;;6.92;76.38
42411;BME280;28056;51.112;0.984;2023-02-21T04:55:31;101115.37;;;7.08;75.03
42411;BME280;28056;51.112;0.984;2023-02-21T04:57:58;101116.14;;;7.19;75.05
42411;BME280;28056;51.112;0.984;2023-02-21T05:00:25;101118.81;;;7.31;74.48
42411;BME280;28056;51.112;0.984;2023-02-21T05:02:52;101120.05;;;8.15;73.45
42411;BME280;28056;51.112;0.984;2023-02-21T05:05:20;101119.29;;;8.79;71.62
42411;BME280;28056;51.112;0.984;2023-02-21T05:07:47;101116.01;;;10.29;66.38
42411;BME280;28056;51.112;0.984;2023-02-21T05:10:16;101116.71;;;10.66;67.30
42411;BME280;28056;51.112;0.984;2023-02-21T05:12:44;101112.50;;;10.08;68.18
42411;BME280;28056;51.112;0.984;2023-02-21T05:15:12;101105.08;;;10.12;66.17
42411;BME280;28056;51.112;0.984;2023-02-21T05:17:41;101105.04;;;9.92;64.89
42411;BME280;28056;51.112;0.984;2023-02-21T05:20:09;101102.55;;;9.88;65.44
42411;BME280;28056;51.112;0.984;2023-02-21T05:22:37;101098.45;;;9.13;64.89
42411;BME280;28056;51.112;0.984;2023-02-21T05:25:05;101093.60;;;9.03;65.31
42411;BME280;28056;51.112;0.984;2023-02-21T05:27:33;101089.23;;;8.26;67.67
42411;BME280;28056;51.112;0.984;2023-02-21T05:30:01;101085.43;;;8.57;67.43
42411;BME280;28056;51.112;0.984;2023-02-21T05:32:28;101082.27;;;9.06;67.66
42411;BME280;28056;51.112;0.984;2023-02-21T05:34:55;101084.06;;;9.61;67.08
42411;BME280;28056;51.112;0.984;2023-02-21T05:37:23;101082.14;;;10.78;67.40
42411;BME280;28056;51.112;0.984;2023-02-21T05:39:50;101082.34;;;11.36;66.29
42411;BME280;28056;51.112;0.984;2023-02-21T05:42:18;101079.64;;;11.61;64.23
42411;BME280;28056;51.112;0.984;2023-02-21T05:44:45;101082.00;;;11.79;66.56
42411;BME280;28056;51.112;0.984;2023-02-21T05:47:14;101078.74;;;11.82;67.56
42411;BME280;28056;51.112;0.984;2023-02-21T05:49:41;101073.97;;;11.62;64.73
42411;BME280;28056;51.112;0.984;2023-02-21T05:52:11;101071.26;;;10.94;62.34
42411;BME280;28056;51.112;0.984;2023-02-21T05:54:39;101068.89;;;11.15;63.96
42411;BME280;28056;51.112;0.984;2023-02-21T05:57:06;101070.07;;;11.23;62.90
42411;BME280;28056;51.112;0.984;2023-02-21T05:59:34;101068.83;;;11.78;63.97
42411;BME280;28056;51.112;0.984;2023-02-21T06:02:01;101067.57;;;12.00;62.92
42411;BME280;28056;51.112;0.984;2023-02-21T06:04:28;101066.16;;;12.06;59.35
42411;BME280;28056;51.112;0.984;2023-02-21T06:06:56;101068.55;;;12.49;63.83
42411;BME280;28056;51.112;0.984;2023-02-21T06:09:24;101065.06;;;12.40;64.86
42411;BME280;28056;51.112;0.984;2023-02-21T06:11:54;101063.06;;;12.51;61.78
42411;BME280;28056;51.112;0.984;2023-02-21T06:14:23;101067.37;;;12.64;64.31
42411;BME280;28056;51.112;0.984;2023-02-21T06:16:51;101069.20;;;11.06;61.19
42411;BME280;28056;51.112;0.984;2023-02-21T06:19:18;101067.45;;;11.82;60.07
42411;BME280;28056;51.112;0.984;2023-02-21T06:21:46;101070.33;;;12.18;60.45
42411;BME280;28056;51.112;0.984;2023-02-21T06:24:14;101071.79;;;12.12;59.00
42411;BME280;28056;51.112;0.984;2023-02-21T06:26:42;101067.44;;;11.68;57.27
42411;BME280;28056;51.112;0.984;2023-02-21T06:29:10;101068.02;;;10.58;58.33
42411;BME280;28056;51.112;0.984;2023-02-21T06:31:38;101071.59;;;11.17;57.91
42411;BME280;28056;51.112;0.984;2023-02-21T06:34:05;101070.58;;;11.80;57.13
42411;BME280;28056;51.112;0.984;2023-02-21T06:36:33;101074.67;;;12.15;58.76
42411;BME280;28056;51.112;0.984;2023-02-21T06:39:01;101078.24;;;12.07;58.11
42411;BME280;28056;51.112;0.984;2023-02-21T06:41:30;101082.96;;;10.44;59.55
42411;BME280;28056;51.112;0.984;2023-02-21T06:43:58;101081.60;;;11.95;59.67
42411;BME280;28056;51.112;0.984;2023-02-21T06:46:27;101079.60;;;12.18;57.26
42411;BME280;28056;51.112;0.984;2023-02-21T06:48:54;101081.22;;;11.38;56.15
42411;BME280;28056;51.112;0.984;2023-02-21T06:51:22;101083.94;;;11.47;56.99
42411;BME280;28056;51.112;0.984;2023-02-21T06:53:50;101085.50;;;11.46;58.47
42411;BME280;28056;51.112;0.984;2023-02-21T06:56:17;101087.72;;;11.27;58.32
42411;BME280;28056;51.112;0.984;2023-02-21T06:58:45;101089.03;;;11.10;57.64
42411;BME280;28056;51.112;0.984;2023-02-21T07:01:12;101087.22;;;11.14;58.21
42411;BME280;28056;51.112;0.984;2023-02-21T07:03:40;101088.32;;;11.08;58.43
42411;BME280;28056;51.112;0.984;2023-02-21T07:06:08;101091.75;;;11.03;57.98
42411;BME280;28056;51.112;0.984;2023-02-21T07:08:35;101089.75;;;10.46;57.73
42411;BME280;28056;51.112;0.984;2023-02-21T07:11:02;101090.19;;;10.94;58.09
42411;BME280;28056;51.112;0.984;2023-02-21T07:13:30;101089.71;;;10.47;57.82
42411;BME280;28056;51.112;0.984;2023-02-21T07:15:57;101089.67;;;10.89;58.51
42411;BME280;28056;51.112;0.984;2023-02-21T07:18:25;101090.39;;;10.24;58.00
42411;BME280;28056;51.112;0.984;2023-02-21T07:20:52;101084.78;;;10.43;58.70
42411;BME280;28056;51.112;0.984;2023-02-21T07:23:19;101078.38;;;10.69;59.10
42411;BME280;28056;51.112;0.984;2023-02-21T07:25:49;101081.31;;;10.81;59.30
42411;BME280;28056;51.112;0.984;2023-02-21T07:28:16;101082.12;;;10.92;59.39
42411;BME280;28056;51.112;0.984;2023-02-21T07:30:44;101079.41;;;10.94;58.93
42411;BME280;28056;51.112;0.984;2023-02-21T07:33:11;101078.71;;;11.12;57.78
42411;BME280;28056;51.112;0.984;2023-02-21T07:35:39;101081.01;;;11.00;58.06
42411;BME280;28056;51.112;0.984;2023-02-21T07:38:06;101077.31;;;11.00;58.53
42411;BME280;28056;51.112;0.984;2023-02-21T07:40:34;101077.88;;;11.01;58.51
42411;BME280;28056;51.112;0.984;2023-02-21T07:43:01;101079.13;;;11.06;58.68
42411;BME280;28056;51.112;0.984;2023-02-21T07:45:29;101078.07;;;11.11;57.85
42411;BME280;28056;51.112;0.984;2023-02-21T07:47:56;101080.34;;;10.52;58.02
42411;BME280;28056;51.112;0.984;2023-02-21T07:50:23;101080.07;;;10.35;57.38
42411;BME280;28056;51.112;0.984;2023-02-21T07:52:50;101082.79;;;10.81;56.98
42411;BME280;28056;51.112;0.984;2023-02-21T07:55:17;101080.47;;;10.56;57.28
42411;BME280;28056;51.112;0.984;2023-02-21T07:57:46;101081.80;;;10.25;58.53
42411;BME280;28056;51.112;0.984;2023-02-21T08:00:14;101087.29;;;10.85;57.69
42411;BME280;28056;51.112;0.984;2023-02-21T08:02:45;101086.53;;;10.13;58.23
42411;BME280;28056;51.112;0.984;2023-02-21T08:05:15;101087.02;;;10.50;58.20
42411;BME280;28056;51.112;0.984;2023-02-21T08:07:44;101086.34;;;9.94;58.69
42411;BME280;28056;51.112;0.984;2023-02-21T08:10:12;101085.73;;;10.04;58.92
42411;BME280;28056;51.112;0.984;2023-02-21T08:12:40;101088.28;;;10.37;59.32
42411;BME280;28056;51.112;0.984;2023-02-21T08:15:07;101090.22;;;10.32;57.20
42411;BME280;28056;51.112;0.984;2023-02-21T08:17:35;101092.66;;;10.08;57.46
42411;BME280;28056;51.112;0.984;2023-02-21T08:20:02;101092.11;;;9.89;58.89
42411;BME280;28056;51.112;0.984;2023-02-21T08:22:30;101092.83;;;9.32;59.33
42411;BME280;28056;51.112;0.984;2023-02-21T08:24:57;101094.59;;;9.39;60.26
42411;BME280;28056;51.112;0.984;2023-02-21T08:27:24;101094.76;;;9.19;60.27
42411;BME280;28056;51.112;0.984;2023-02-21T08:29:51;101089.85;;;9.99;58.25
42411;BME280;28056;51.112;0.984;2023-02-21T08:32:19;101088.10;;;10.37;58.16
42411;BME280;28056;51.112;0.984;2023-02-21T08:34:47;101087.19;;;9.85;58.95
42411;BME280;28056;51.112;0.984;2023-02-21T08:37:14;101087.29;;;10.06;59.42
42411;BME280;28056;51.112;0.984;2023-02-21T08:39:44;101089.93;;;9.94;59.80
42411;BME280;28056;51.112;0.984;2023-02-21T08:42:11;101095.01;;;9.77;59.25
42411;BME280;28056;51.112;0.984;2023-02-21T08:44:38;101093.67;;;10.11;57.47
42411;BME280;28056;51.112;0.984;2023-02-21T08:47:06;101093.93;;;10.17;58.14
42411;BME280;28056;51.112;0.984;2023-02-21T08:49:34;101094.61;;;10.07;58.15
42411;BME280;28056;51.112;0.984;2023-02-21T08:52:02;101095.93;;;10.86;56.82
42411;BME280;28056;51.112;0.984;2023-02-21T08:54:29;101101.58;;;8.95;59.63
42411;BME280;28056;51.112;0.984;2023-02-21T08:56:56;101098.28;;;9.49;58.86
42411;BME280;28056;51.112;0.984;2023-02-21T08:59:23;101105.21;;;9.21;59.96
42411;BME280;28056;51.112;0.984;2023-02-21T09:01:51;101101.78;;;9.05;60.15
42411;BME280;28056;51.112;0.984;2023-02-21T09:04:18;101104.84;;;9.28;61.34
42411;BME280;28056;51.112;0.984;2023-02-21T09:06:46;101103.13;;;9.55;60.21
42411;BME280;28056;51.112;0.984;2023-02-21T09:09:13;101096.48;;;9.88;58.90
42411;BME280;28056;51.112;0.984;2023-02-21T09:11:41;101094.38;;;9.90;58.81
42411;BME280;28056;51.112;0.984;2023-02-21T09:14:08;101091.36;;;9.80;58.96
42411;BME280;28056;51.112;0.984;2023-02-21T09:16:36;101088.97;;;9.57;59.98
42411;BME280;28056;51.112;0.984;2023-02-21T09:19:04;101091.57;;;9.72;60.26
42411;BME280;28056;51.112;0.984;2023-02-21T09:21:33;101089.34;;;9.80;60.23
42411;BME280;28056;51.112;0.984;2023-02-21T09:24:00;101088.06;;;9.77;59.24
42411;BME280;28056;51.112;0.984;2023-02-21T09:26:28;101087.47;;;9.57;60.68
42411;BME280;28056;51.112;0.984;2023-02-21T09:28:55;101093.43;;;9.27;60.38
42411;BME280;28056;51.112;0.984;2023-02-21T09:31:24;101089.52;;;9.89;59.94
42411;BME280;28056;51.112;0.984;2023-02-21T09:33:51;101090.74;;;9.86;59.48
42411;BME280;28056;51.112;0.984;2023-02-21T09:36:19;101092.89;;;9.14;61.15
42411;BME280;28056;51.112;0.984;2023-02-21T09:38:47;101090.75;;;9.09;60.90
42411;BME280;28056;51.112;0.984;2023-02-21T09:41:15;101088.82;;;9.06;60.90
42411;BME280;28056;51.112;0.984;2023-02-21T09:43:45;101085.69;;;7.57;66.26
42411;BME280;28056;51.112;0.984;2023-02-21T09:46:18;101083.06;;;8.81;63.44
42411;BME280;28056;51.112;0.984;2023-02-21T09:48:48;101081.36;;;8.08;65.82
42411;BME280;28056;51.112;0.984;2023-02-21T09:51:16;101081.08;;;8.84;63.00
42411;BME280;28056;51.112;0.984;2023-02-21T09:53:46;101078.94;;;9.04;62.73
42411;BME280;28056;51.112;0.984;2023-02-21T09:56:22;101080.23;;;8.56;64.45
42411;BME280;28056;51.112;0.984;2023-02-21T09:58:52;101072.42;;;9.78;61.36
42411;BME280;28056;51.112;0.984;2023-02-21T10:01:28;101073.04;;;9.91;61.64
42411;BME280;28056;51.112;0.984;2023-02-21T10:04:07;101068.87;;;10.34;61.40
42411;BME280;28056;51.112;0.984;2023-02-21T10:06:45;101070.67;;;10.32;59.57
42411;BME280;28056;51.112;0.984;2023-02-21T10:09:23;101070.61;;;9.53;61.43
42411;BME280;28056;51.112;0.984;2023-02-21T10:12:02;101067.87;;;10.39;60.45
42411;BME280;28056;51.112;0.984;2023-02-21T10:14:40;101068.95;;;9.91;61.40
42411;BME280;28056;51.112;0.984;2023-02-21T10:17:17;101068.14;;;9.91;61.36
42411;BME280;28056;51.112;0.984;2023-02-21T10:19:51;101069.84;;;8.35;66.34
42411;BME280;28056;51.112;0.984;2023-02-21T10:22:24;101065.94;;;9.66;63.29
42411;BME280;28056;51.112;0.984;2023-02-21T10:24:52;101065.09;;;9.14;64.78
42411;BME280;28056;51.112;0.984;2023-02-21T10:27:22;101061.27;;;9.70;63.76
42411;BME280;28056;51.112;0.984;2023-02-21T10:29:53;101065.18;;;10.02;63.50
42411;BME280;28056;51.112;0.984;2023-02-21T10:32:23;101064.75;;;9.27;64.30
42411;BME280;28056;51.112;0.984;2023-02-21T10:34:51;101070.19;;;8.93;65.79
42411;BME280;28056;51.112;0.984;2023-02-21T10:37:30;101060.53;;;10.17;62.94
42411;BME280;28056;51.112;0.984;2023-02-21T10:40:03;101072.99;;;8.91;65.86
42411;BME280;28056;51.112;0.984;2023-02-21T10:42:36;101071.59;;;9.68;64.62
42411;BME280;28056;51.112;0.984;2023-02-21T10:45:10;101071.27;;;8.71;67.72
42411;BME280;28056;51.112;0.984;2023-02-21T10:47:47;101062.94;;;9.23;65.47
42411;BME280;28056;51.112;0.984;2023-02-21T10:50:36;101066.71;;;8.34;67.92
42411;BME280;28056;51.112;0.984;2023-02-21T10:53:04;101062.29;;;9.39;66.30
42411;BME280;28056;51.112;0.984;2023-02-21T10:55:32;101061.73;;;8.36;68.34
42411;BME280;28056;51.112;0.984;2023-02-21T10:58:07;101063.61;;;8.33;68.73
42411;BME280;28056;51.112;0.984;2023-02-21T11:00:37;101064.50;;;8.79;68.77
42411;BME280;28056;51.112;0.984;2023-02-21T11:03:06;101060.47;;;9.11;66.87
42411;BME280;28056;51.112;0.984;2023-02-21T11:05:39;101062.11;;;9.18;66.28
42411;BME280;28056;51.112;0.984;2023-02-21T11:08:08;101065.80;;;8.83;67.78
42411;BME280;28056;51.112;0.984;2023-02-21T11:10:37;101062.01;;;8.80;68.10
42411;BME280;28056;51.112;0.984;2023-02-21T11:13:13;101062.74;;;8.77;69.77
42411;BME280;28056;51.112;0.984;2023-02-21T11:15:42;101054.11;;;9.67;67.75
42411;BME280;28056;51.112;0.984;2023-02-21T11:18:15;101056.88;;;9.11;68.91
42411;BME280;28056;51.112;0.984;2023-02-21T11:20:43;101054.62;;;8.99;69.59
42411;BME280;28056;51.112;0.984;2023-02-21T11:23:21;101049.59;;;8.84;69.98
42411;BME280;28056;51.112;0.984;2023-02-21T11:25:51;101044.67;;;9.03;69.74
42411;BME280;28056;51.112;0.984;2023-02-21T11:28:21;101037.63;;;8.14;70.65
42411;BME280;28056;51.112;0.984;2023-02-21T11:31:02;101032.58;;;8.94;70.74
42411;BME280;28056;51.112;0.984;2023-02-21T11:33:36;101022.69;;;8.20;71.13
42411;BME280;28056;51.112;0.984;2023-02-21T11:36:11;101018.17;;;8.33;72.72
42411;BME280;28056;51.112;0.984;2023-02-21T11:38:40;101007.87;;;9.32;70.13
42411;BME280;28056;51.112;0.984;2023-02-21T11:41:21;101008.25;;;8.62;71.77
42411;BME280;28056;51.112;0.984;2023-02-21T11:43:49;101005.01;;;7.99;71.51
42411;BME280;28056;51.112;0.984;2023-02-21T11:46:35;100996.86;;;9.08;70.95
42411;BME280;28056;51.112;0.984;2023-02-21T11:49:10;100993.72;;;8.91;70.46
42411;BME280;28056;51.112;0.984;2023-02-21T11:51:47;100996.11;;;8.47;72.07
42411;BME280;28056;51.112;0.984;2023-02-21T11:54:15;100991.66;;;8.48;71.35
42411;BME280;28056;51.112;0.984;2023-02-21T11:56:50;100985.94;;;9.17;69.85
42411;BME280;28056;51.112;0.984;2023-02-21T11:59:27;100979.16;;;8.75;70.97
42411;BME280;28056;51.112;0.984;2023-02-21T12:02:14;100969.22;;;8.81;71.28
42411;BME280;28056;51.112;0.984;2023-02-21T12:04:54;100972.10;;;9.10;69.53
42411;BME280;28056;51.112;0.984;2023-02-21T12:07:29;100970.90;;;9.80;68.53
42411;BME280;28056;51.112;0.984;2023-02-21T12:10:02;100968.69;;;9.43;68.82
42411;BME280;28056;51.112;0.984;2023-02-21T12:12:40;100963.30;;;9.47;68.28
42411;BME280;28056;51.112;0.984;2023-02-21T12:15:20;100964.85;;;8.19;72.00
42411;BME280;28056;51.112;0.984;2023-02-21T12:17:58;100959.08;;;8.33;71.60
42411;BME280;28056;51.112;0.984;2023-02-21T12:20:42;100958.63;;;9.10;69.46
42411;BME280;28056;51.112;0.984;2023-02-21T12:23:18;100957.02;;;9.44;70.57
42411;BME280;28056;51.112;0.984;2023-02-21T12:26:04;100958.34;;;8.45;72.06
42411;BME280;28056;51.112;0.984;2023-02-21T12:28:43;100953.10;;;9.00;69.84
42411;BME280;28056;51.112;0.984;2023-02-21T12:31:23;100944.87;;;8.32;71.38
42411;BME280;28056;51.112;0.984;2023-02-21T12:34:04;100941.03;;;9.23;68.25
42411;BME280;28056;51.112;0.984;2023-02-21T12:36:47;100939.06;;;9.46;68.70
42411;BME280;28056;51.112;0.984;2023-02-21T12:39:27;100938.45;;;8.29;69.72
42411;BME280;28056;51.112;0.984;2023-02-21T12:42:15;100936.03;;;8.48;71.01
42411;BME280;28056;51.112;0.984;2023-02-21T12:44:55;100927.51;;;8.49;69.54
42411;BME280;28056;51.112;0.984;2023-02-21T12:47:31;100921.51;;;8.33;71.60
42411;BME280;28056;51.112;0.984;2023-02-21T12:50:04;100918.98;;;9.10;68.57
42411;BME280;28056;51.112;0.984;2023-02-21T12:52:38;100920.45;;;8.60;70.42
42411;BME280;28056;51.112;0.984;2023-02-21T12:55:13;100922.58;;;8.69;69.02
42411;BME280;28056;51.112;0.984;2023-02-21T12:57:47;100917.76;;;9.07;68.87
42411;BME280;28056;51.112;0.984;2023-02-21T13:00:19;100914.94;;;9.38;67.02
42411;BME280;28056;51.112;0.984;2023-02-21T13:02:57;100909.13;;;9.49;66.75
42411;BME280;28056;51.112;0.984;2023-02-21T13:05:35;100906.85;;;9.23;67.76
42411;BME280;28056;51.112;0.984;2023-02-21T13:08:08;100906.94;;;8.41;69.81
42411;BME280;28056;51.112;0.984;2023-02-21T13:10:47;100905.57;;;7.64;70.58
42411;BME280;28056;51.112;0.984;2023-02-21T13:13:20;100896.03;;;8.49;70.06
42411;BME280;28056;51.112;0.984;2023-02-21T13:15:48;100891.80;;;9.06;68.03
42411;BME280;28056;51.112;0.984;2023-02-21T13:18:20;100892.49;;;8.43;68.95
42411;BME280;28056;51.112;0.984;2023-02-21T13:20:55;100887.12;;;9.34;66.86
42411;BME280;28056;51.112;0.984;2023-02-21T13:24:31;100885.70;;;8.34;68.77
42411;BME280;28056;51.112;0.984;2023-02-21T13:27:53;100873.47;;;8.99;67.04